Time;durP1;ratioP1;P1;durP2;ratioP2;P2;SDS_P1;SDS_P2;PMS_P1;PMS_P2;Temp;Humidity;BMP_temperature;BMP_pressure;BME280_temperature;BME280_humidity;BME280_pressure;Samples;Min_cycle;Max_cycle;Signal;HPM_P1;HPM_P2
2021/08/17 00:00:01;;;;;;;7.10;2.60;;;;;;;13.07;100.00;100138.19;2615280;31;20571;-44
2021/08/17 00:02:29;;;;;;;8.80;2.95;;;;;;;13.05;100.00;100139.91;2614368;31;20324;-45
2021/08/17 00:04:56;;;;;;;5.07;2.63;;;;;;;13.03;100.00;100130.44;2614231;36;20651;-46
2021/08/17 00:07:23;;;;;;;11.02;3.80;;;;;;;12.98;100.00;100128.69;2613939;36;20031;-46
2021/08/17 00:09:50;;;;;;;9.00;3.28;;;;;;;12.88;100.00;100121.78;2615713;31;20052;-45
2021/08/17 00:12:17;;;;;;;6.88;3.17;;;;;;;12.92;100.00;100118.38;2614578;36;20033;-48
2021/08/17 00:14:44;;;;;;;9.27;3.45;;;;;;;12.87;100.00;100126.91;2614733;36;20679;-46
2021/08/17 00:17:13;;;;;;;8.80;3.10;;;;;;;12.81;100.00;100125.16;2614785;36;20042;-47
2021/08/17 00:19:40;;;;;;;9.57;3.08;;;;;;;12.79;100.00;100116.56;2614786;36;20030;-46
2021/08/17 00:22:07;;;;;;;7.88;3.28;;;;;;;12.75;100.00;100113.13;2614800;36;20433;-48
2021/08/17 00:24:35;;;;;;;10.45;3.20;;;;;;;12.80;100.00;100117.44;2614962;36;20022;-47
2021/08/17 00:27:03;;;;;;;9.98;4.30;;;;;;;12.74;100.00;100110.53;2615815;31;20042;-46
2021/08/17 00:29:31;;;;;;;8.82;3.65;;;;;;;12.63;100.00;100107.91;2614284;36;20069;-48
2021/08/17 00:31:58;;;;;;;6.50;3.75;;;;;;;12.70;100.00;100101.94;2614736;36;20034;-44
2021/08/17 00:34:26;;;;;;;10.77;3.13;;;;;;;12.72;100.00;100107.13;2615212;31;20037;-45
2021/08/17 00:36:53;;;;;;;6.32;3.03;;;;;;;12.66;100.00;100105.38;2615746;31;20054;-49
2021/08/17 00:39:20;;;;;;;9.35;3.50;;;;;;;12.68;100.00;100106.22;2614966;31;20056;-45
2021/08/17 00:41:47;;;;;;;7.50;3.22;;;;;;;12.66;100.00;100105.38;2615108;31;20061;-47
2021/08/17 00:44:26;;;;;;;5.78;3.33;;;;;;;12.72;100.00;100114.81;2616182;31;20057;-45
2021/08/17 00:46:56;;;;;;;8.82;3.13;;;;;;;12.67;100.00;100116.50;2615398;36;20036;-46
2021/08/17 00:49:25;;;;;;;4.63;2.92;;;;;;;12.69;99.78;100105.38;2615205;36;20042;-46
2021/08/17 00:51:59;;;;;;;7.28;3.08;;;;;;;12.72;99.58;100109.69;2615131;36;20054;-49
2021/08/17 00:54:27;;;;;;;4.57;2.88;;;;;;;12.81;99.48;100103.75;2616127;31;20035;-47
2021/08/17 00:56:56;;;;;;;5.43;3.05;;;;;;;12.80;99.13;100107.16;2615955;31;20061;-45
2021/08/17 00:59:23;;;;;;;9.23;3.22;;;;;;;12.94;98.41;100113.25;2615564;36;20472;-48
2021/08/17 01:01:51;;;;;;;7.00;3.10;;;;;;;12.94;97.69;100109.00;2615149;36;20057;-45
2021/08/17 01:04:18;;;;;;;6.32;3.25;;;;;;;13.09;96.96;100102.22;2614693;36;20060;-43
2021/08/17 01:06:46;;;;;;;5.90;2.92;;;;;;;13.05;96.08;100097.91;2614883;36;20061;-43
2021/08/17 01:09:13;;;;;;;7.15;3.20;;;;;;;13.14;96.31;100095.41;2615453;36;20035;-46
2021/08/17 01:11:45;;;;;;;6.63;2.97;;;;;;;12.96;97.17;100096.16;2615614;36;20646;-43
2021/08/17 01:14:18;;;;;;;7.15;3.38;;;;;;;13.00;96.71;100085.88;2616126;31;20033;-43
2021/08/17 01:16:45;;;;;;;9.27;3.08;;;;;;;13.12;96.31;100099.66;2580188;31;2004274;-43
2021/08/17 01:19:13;;;;;;;9.88;3.28;;;;;;;13.05;96.88;100095.34;2615309;31;20030;-43
2021/08/17 01:21:41;;;;;;;4.45;2.70;;;;;;;13.00;96.53;100079.91;2615954;31;20035;-43
2021/08/17 01:24:09;;;;;;;10.00;3.22;;;;;;;12.93;97.25;100086.69;2615718;31;20038;-44
2021/08/17 01:26:36;;;;;;;9.82;3.97;;;;;;;12.92;97.93;100095.25;2615329;36;20574;-43
2021/08/17 01:29:04;;;;;;;7.28;3.00;;;;;;;12.93;96.88;100096.97;2614790;36;21136;-45
2021/08/17 01:31:31;;;;;;;7.57;3.00;;;;;;;13.02;96.62;100103.88;2615312;36;20026;-43
2021/08/17 01:33:58;;;;;;;8.23;3.45;;;;;;;13.08;95.85;100093.66;2616643;31;20155;-46
2021/08/17 01:36:25;;;;;;;8.27;3.10;;;;;;;13.13;95.19;100099.69;2616102;31;20451;-45
2021/08/17 01:38:53;;;;;;;8.95;2.90;;;;;;;13.04;95.44;100091.06;2615703;31;20575;-47
2021/08/17 01:41:20;;;;;;;6.75;2.67;;;;;;;13.08;95.33;100091.09;2615121;36;20077;-46
2021/08/17 01:43:47;;;;;;;7.43;2.72;;;;;;;13.06;95.61;100085.06;2614928;36;20030;-46
2021/08/17 01:46:15;;;;;;;7.80;2.92;;;;;;;12.99;95.45;100079.03;2614867;36;20073;-43
2021/08/17 01:48:43;;;;;;;7.57;2.92;;;;;;;12.98;95.99;100079.88;2615808;31;20541;-45
2021/08/17 01:51:11;;;;;;;8.60;3.08;;;;;;;12.90;96.17;100085.84;2615410;31;20057;-47
2021/08/17 01:53:38;;;;;;;9.73;3.13;;;;;;;12.89;96.32;100082.38;2615400;31;20053;-50
2021/08/17 01:56:10;;;;;;;12.73;3.53;;;;;;;12.92;96.17;100071.28;2617406;31;20460;-49
2021/08/17 01:58:37;;;;;;;10.88;3.55;;;;;;;12.92;96.00;100068.69;2614964;36;20031;-49
2021/08/17 02:01:06;;;;;;;9.40;3.10;;;;;;;12.75;96.54;100066.88;2614836;36;20657;-45
2021/08/17 02:03:34;;;;;;;11.63;3.60;;;;;;;12.88;95.97;100054.13;2615955;31;21348;-46
2021/08/17 02:06:02;;;;;;;15.85;3.22;;;;;;;12.86;96.41;100050.69;2615820;31;20594;-45
2021/08/17 02:08:30;;;;;;;12.02;3.88;;;;;;;12.81;95.76;100073.78;2615170;31;20038;-45
2021/08/17 02:10:58;;;;;;;6.45;2.90;;;;;;;12.90;95.47;100060.13;2617183;36;20452;-45
2021/08/17 02:13:27;;;;;;;9.50;2.72;;;;;;;12.90;95.46;100083.25;2615908;31;20030;-44
2021/08/17 02:15:55;;;;;;;8.13;2.70;;;;;;;12.82;95.98;100079.78;2615307;31;20042;-46
2021/08/17 02:18:23;;;;;;;9.93;2.90;;;;;;;12.91;95.84;100084.97;2614883;36;20099;-44
2021/08/17 02:20:50;;;;;;;7.28;3.50;;;;;;;13.01;95.71;100071.31;2614866;36;20071;-45
2021/08/17 02:23:17;;;;;;;8.73;3.20;;;;;;;12.97;95.53;100090.16;2615902;36;20212;-47
2021/08/17 02:25:44;;;;;;;8.70;3.25;;;;;;;13.08;94.95;100091.09;2615215;31;20035;-45
2021/08/17 02:28:12;;;;;;;5.55;2.47;;;;;;;13.09;94.53;100084.22;2614843;36;20034;-45
2021/08/17 02:30:39;;;;;;;9.88;2.55;;;;;;;13.00;94.45;100083.31;2615307;31;20081;-45
2021/08/17 02:33:07;;;;;;;6.80;2.70;;;;;;;12.94;94.86;100078.16;2616780;31;20073;-47
2021/08/17 02:35:34;;;;;;;7.50;2.60;;;;;;;12.85;95.23;100078.09;2614810;36;20037;-45
2021/08/17 02:38:03;;;;;;;6.22;2.53;;;;;;;12.86;95.06;100079.81;2616262;31;20053;-47
2021/08/17 02:40:30;;;;;;;6.93;2.67;;;;;;;12.91;95.27;100090.97;2617401;31;20027;-46
2021/08/17 02:42:57;;;;;;;8.98;3.17;;;;;;;12.88;95.48;100087.50;2615636;31;20057;-44
2021/08/17 02:45:24;;;;;;;9.30;2.55;;;;;;;12.89;95.70;100092.66;2615390;31;20038;-48
2021/08/17 02:48:10;;;;;;;5.95;2.60;;;;;;;12.79;96.01;100102.88;2615223;31;20030;-45
2021/08/17 02:50:37;;;;;;;10.82;2.65;;;;;;;12.75;96.74;100082.28;2615604;31;20042;-45
2021/08/17 02:53:04;;;;;;;8.35;3.13;;;;;;;12.67;97.08;100086.53;2615467;31;20536;-48
2021/08/17 02:55:31;;;;;;;4.57;2.53;;;;;;;12.62;97.21;100089.91;2615062;31;20030;-47
2021/08/17 02:58:05;;;;;;;7.75;3.17;;;;;;;12.64;97.37;100090.78;2615859;31;20018;-45
2021/08/17 03:00:33;;;;;;;9.98;2.95;;;;;;;12.61;97.61;100083.03;2614672;36;20038;-44
2021/08/17 03:03:00;;;;;;;7.07;3.03;;;;;;;12.61;97.71;100086.47;2614665;36;20026;-44
2021/08/17 03:05:27;;;;;;;4.95;2.70;;;;;;;12.58;98.20;100080.47;2614944;31;20041;-45
2021/08/17 03:08:00;;;;;;;10.48;2.30;;;;;;;12.59;98.15;100082.19;2615724;31;20030;-46
2021/08/17 03:10:28;;;;;;;8.13;2.72;;;;;;;12.62;97.71;100070.22;2614677;36;20049;-44
2021/08/17 03:12:55;;;;;;;8.95;3.33;;;;;;;12.58;98.61;100075.31;2615193;31;20481;-46
2021/08/17 03:15:23;;;;;;;7.43;2.67;;;;;;;12.61;98.63;100073.63;2614382;36;20035;-47
2021/08/17 03:17:51;;;;;;;4.97;2.53;;;;;;;12.64;98.26;100076.22;2614061;36;20457;-47
2021/08/17 03:20:19;;;;;;;10.82;3.20;;;;;;;12.66;98.70;100074.53;2615162;36;20483;-46
2021/08/17 03:22:46;;;;;;;6.50;2.70;;;;;;;12.74;98.20;100077.16;2614618;31;20633;-48
2021/08/17 03:25:17;;;;;;;10.32;4.22;;;;;;;12.78;97.96;100081.47;2614499;36;20031;-46
2021/08/17 03:27:44;;;;;;;6.85;3.22;;;;;;;12.86;97.35;100076.38;2615121;36;20553;-49
2021/08/17 03:30:14;;;;;;;8.20;3.08;;;;;;;13.00;97.17;100085.88;2619184;36;20031;-46
2021/08/17 03:32:41;;;;;;;8.68;2.58;;;;;;;13.04;96.92;100079.06;2615240;31;20042;-45
2021/08/17 03:35:10;;;;;;;5.93;2.83;;;;;;;13.08;96.91;100073.09;2615194;31;20547;-46
2021/08/17 03:37:38;;;;;;;9.15;3.45;;;;;;;13.15;96.67;100068.84;2614264;36;20034;-46
2021/08/17 03:40:13;;;;;;;7.03;2.95;;;;;;;13.23;95.64;100082.63;2614755;31;20041;-46
2021/08/17 03:42:40;;;;;;;8.43;3.07;;;;;;;13.22;96.02;100078.34;2614581;31;20038;-46
2021/08/17 03:45:11;;;;;;;5.82;2.75;;;;;;;13.20;96.57;100090.28;2614988;36;20058;-44
2021/08/17 03:47:38;;;;;;;5.32;2.70;;;;;;;13.30;95.98;100081.78;2615113;36;20042;-47
2021/08/17 03:50:07;;;;;;;10.20;3.05;;;;;;;13.33;95.68;100084.38;2614551;31;20045;-44
2021/08/17 03:52:34;;;;;;;5.00;2.80;;;;;;;13.28;96.14;100077.50;2613722;36;20061;-45
2021/08/17 03:55:02;;;;;;;7.85;2.72;;;;;;;13.18;96.21;100092.00;2613326;36;20061;-48
2021/08/17 03:57:30;;;;;;;4.40;2.33;;;;;;;13.36;95.70;100091.25;2613744;31;20039;-44
2021/08/17 03:59:57;;;;;;;7.68;2.80;;;;;;;13.34;96.60;100103.25;2614930;31;20205;-47
2021/08/17 04:02:24;;;;;;;6.22;2.60;;;;;;;13.40;95.64;100093.84;2613507;36;20034;-44
2021/08/17 04:04:51;;;;;;;7.20;2.67;;;;;;;13.46;95.34;100096.44;2613665;36;20047;-46
2021/08/17 04:07:18;;;;;;;8.10;2.55;;;;;;;13.57;94.97;100105.91;2615771;31;20591;-44
2021/08/17 04:09:45;;;;;;;6.75;2.50;;;;;;;13.54;95.48;100106.75;2614871;36;20038;-46
2021/08/17 04:12:12;;;;;;;6.15;2.90;;;;;;;13.57;95.23;100111.06;2614972;36;20037;-45
2021/08/17 04:14:39;;;;;;;6.95;1.98;;;;;;;13.66;94.83;100103.38;2614784;36;20061;-45
2021/08/17 04:17:07;;;;;;;9.70;2.63;;;;;;;13.64;95.27;100110.25;2614834;36;20030;-44
2021/08/17 04:19:38;;;;;;;8.07;2.15;;;;;;;13.70;94.81;100116.25;2614933;36;20637;-44
2021/08/17 04:22:06;;;;;;;5.82;2.05;;;;;;;13.63;94.88;100114.50;2614954;36;20039;-46
2021/08/17 04:24:34;;;;;;;10.30;2.40;;;;;;;13.71;94.79;100120.53;2614961;31;20030;-47
2021/08/17 04:27:02;;;;;;;5.07;2.13;;;;;;;13.67;94.88;100113.66;2615362;31;20038;-47
2021/08/17 04:29:29;;;;;;;5.75;2.10;;;;;;;13.70;94.70;100126.56;2616349;36;20042;-44
2021/08/17 04:31:57;;;;;;;6.75;2.35;;;;;;;13.80;94.38;100124.88;2616098;31;20447;-46
2021/08/17 04:34:24;;;;;;;5.50;1.92;;;;;;;13.75;95.31;100121.41;2615583;36;20673;-45
2021/08/17 04:36:51;;;;;;;9.50;3.20;;;;;;;13.84;94.58;100130.88;2614974;31;20658;-47
2021/08/17 04:39:18;;;;;;;7.13;3.08;;;;;;;13.72;95.25;100121.41;2614743;36;20072;-46
2021/08/17 04:41:46;;;;;;;9.65;2.78;;;;;;;13.91;94.81;100135.19;2615341;31;20026;-46
2021/08/17 04:44:13;;;;;;;8.07;2.42;;;;;;;13.92;94.42;100147.22;2615257;31;20038;-43
2021/08/17 04:46:40;;;;;;;11.57;2.85;;;;;;;13.96;94.54;100139.53;2615106;36;20613;-43
2021/08/17 04:49:08;;;;;;;5.72;2.35;;;;;;;13.96;94.10;100139.53;2615026;36;20034;-45
2021/08/17 04:51:38;;;;;;;6.22;2.72;;;;;;;13.93;94.46;100136.94;2616132;31;20122;-45
2021/08/17 04:54:05;;;;;;;8.30;2.78;;;;;;;14.10;93.88;100139.56;2614693;36;20030;-46
2021/08/17 04:56:32;;;;;;;6.22;2.95;;;;;;;14.10;94.10;100156.72;2615768;31;20030;-45
2021/08/17 04:59:00;;;;;;;4.88;1.83;;;;;;;14.09;93.68;100154.97;2615004;31;20060;-47
2021/08/17 05:01:27;;;;;;;8.20;2.55;;;;;;;14.15;93.38;100145.56;2614387;36;20047;-43
2021/08/17 05:03:54;;;;;;;7.18;2.50;;;;;;;14.12;93.40;100152.41;2614956;31;20466;-45
2021/08/17 05:06:21;;;;;;;5.18;2.28;;;;;;;14.19;93.80;100149.00;2614858;36;20038;-47
2021/08/17 05:08:48;;;;;;;5.22;1.95;;;;;;;14.24;93.41;100153.31;2614480;36;20037;-45
2021/08/17 05:11:15;;;;;;;7.63;2.75;;;;;;;14.15;93.34;100148.16;2615689;31;20034;-45
2021/08/17 05:13:43;;;;;;;8.23;2.72;;;;;;;14.22;94.15;100164.47;2614752;36;20038;-46
2021/08/17 05:16:11;;;;;;;8.02;2.75;;;;;;;14.22;93.38;100157.59;2614893;36;20031;-45
2021/08/17 05:18:38;;;;;;;9.02;2.80;;;;;;;14.23;94.56;100168.75;2614958;36;20054;-45
2021/08/17 05:21:05;;;;;;;7.15;2.85;;;;;;;14.27;93.99;100167.91;2615200;31;20594;-48
2021/08/17 05:23:32;;;;;;;10.43;3.63;;;;;;;14.33;94.08;100167.03;2614905;36;20597;-46
2021/08/17 05:25:59;;;;;;;7.82;2.97;;;;;;;14.45;93.54;100167.94;2615638;36;20030;-46
2021/08/17 05:28:27;;;;;;;11.40;3.45;;;;;;;14.46;93.72;100186.81;2615719;31;20447;-44
2021/08/17 05:30:54;;;;;;;8.52;3.20;;;;;;;14.32;93.96;100179.06;2614729;36;20045;-49
2021/08/17 05:33:21;;;;;;;9.40;2.90;;;;;;;14.34;94.73;100184.25;2615169;31;20037;-44
2021/08/17 05:35:48;;;;;;;10.45;3.20;;;;;;;14.42;94.28;100185.97;2615595;31;20402;-45
2021/08/17 05:38:15;;;;;;;9.35;4.05;;;;;;;14.43;94.71;100187.69;2614936;36;20034;-47
2021/08/17 05:40:42;;;;;;;8.35;3.30;;;;;;;14.62;94.13;100187.75;2614471;36;20038;-46
2021/08/17 05:43:09;;;;;;;8.20;3.05;;;;;;;14.54;93.49;100187.72;2615176;31;20034;-45
2021/08/17 05:45:57;;;;;;;6.20;2.90;;;;;;;14.66;94.28;100199.78;2578867;36;2004486;-45
2021/08/17 05:48:24;;;;;;;11.43;4.07;;;;;;;14.53;94.50;100204.06;2615455;31;20031;-45
2021/08/17 05:50:51;;;;;;;7.80;3.70;;;;;;;14.66;94.75;100198.06;2616132;31;20034;-45
2021/08/17 05:53:18;;;;;;;9.73;3.35;;;;;;;14.63;94.78;100195.47;2615237;31;20023;-44
2021/08/17 05:55:45;;;;;;;6.95;3.17;;;;;;;14.70;94.72;100204.09;2614840;36;20543;-45
2021/08/17 05:58:12;;;;;;;9.27;2.80;;;;;;;14.67;94.63;100199.78;2625239;31;20609;-44
2021/08/17 06:00:39;;;;;;;8.15;3.30;;;;;;;14.69;95.36;100204.94;2614546;36;20034;-45
2021/08/17 06:03:06;;;;;;;11.20;4.40;;;;;;;14.57;96.51;100210.09;2614313;36;20933;-45
2021/08/17 06:05:34;;;;;;;7.30;3.40;;;;;;;14.61;95.96;100212.66;2614038;36;20023;-44
2021/08/17 06:08:01;;;;;;;8.18;3.58;;;;;;;14.66;97.54;100212.69;2614374;31;20037;-46
2021/08/17 06:10:28;;;;;;;9.40;3.60;;;;;;;14.54;97.93;100216.06;2614317;36;20038;-44
2021/08/17 06:12:55;;;;;;;8.77;3.75;;;;;;;14.65;97.21;100224.72;2614545;36;20065;-48
2021/08/17 06:15:23;;;;;;;8.15;3.85;;;;;;;14.68;98.92;100234.13;2614581;36;20030;-44
2021/08/17 06:17:50;;;;;;;11.38;3.67;;;;;;;14.64;99.02;100230.69;2614730;31;20030;-47
2021/08/17 06:20:17;;;;;;;10.38;4.20;;;;;;;14.73;100.00;100222.13;2614556;36;20042;-46
2021/08/17 06:22:44;;;;;;;8.52;4.13;;;;;;;15.00;98.30;100226.44;2615677;31;20034;-44
2021/08/17 06:25:12;;;;;;;8.38;3.60;;;;;;;15.21;96.61;100234.19;2614520;36;20038;-45
2021/08/17 06:27:39;;;;;;;12.18;3.65;;;;;;;15.32;95.54;100229.00;2614816;31;20594;-45
2021/08/17 06:30:07;;;;;;;7.63;3.85;;;;;;;15.09;95.20;100234.16;2614486;36;20450;-51
2021/08/17 06:32:55;;;;;;;6.72;3.42;;;;;;;15.22;94.81;100241.06;2578369;31;2004406;-44
2021/08/17 06:35:23;;;;;;;9.60;3.75;;;;;;;15.35;94.47;100239.31;2614189;36;20042;-45
2021/08/17 06:37:51;;;;;;;8.10;3.80;;;;;;;15.25;94.85;100243.63;2614218;36;20574;-48
2021/08/17 06:40:20;;;;;;;9.30;4.00;;;;;;;15.19;95.63;100251.34;2614259;36;20040;-47
2021/08/17 06:42:47;;;;;;;8.80;3.60;;;;;;;15.35;95.47;100257.38;2614509;36;20031;-47
2021/08/17 06:45:15;;;;;;;10.00;4.10;;;;;;;15.18;96.28;100262.53;2614924;31;20038;-45
2021/08/17 06:47:47;;;;;;;14.25;3.60;;;;;;;15.11;94.71;100254.78;2614546;31;20026;-46
2021/08/17 06:50:34;;;;;;;10.32;3.40;;;;;;;15.20;93.99;100260.81;2578159;36;2004302;-45
2021/08/17 06:53:01;;;;;;;10.75;3.42;;;;;;;15.36;93.42;100266.84;2614532;36;20030;-46
2021/08/17 06:55:28;;;;;;;9.68;3.75;;;;;;;15.56;93.89;100265.94;2614199;36;20042;-48
2021/08/17 06:57:56;;;;;;;10.20;3.00;;;;;;;15.62;90.87;100263.34;2614327;36;20030;-49
2021/08/17 07:00:23;;;;;;;8.50;3.78;;;;;;;15.74;90.84;100271.97;2614813;31;20435;-45
2021/08/17 07:02:51;;;;;;;7.88;3.42;;;;;;;15.67;91.04;100272.00;2614167;36;20577;-45
2021/08/17 07:05:32;;;;;;;8.98;3.72;;;;;;;15.67;90.14;100279.75;2616945;31;20471;-45
2021/08/17 07:07:59;;;;;;;10.52;3.35;;;;;;;15.61;90.57;100265.06;2615112;36;20037;-45
2021/08/17 07:10:27;;;;;;;11.82;3.30;;;;;;;15.76;90.21;100274.53;2614666;36;20059;-47
2021/08/17 07:13:14;;;;;;;9.68;3.05;;;;;;;15.71;90.27;100276.28;2624988;31;20030;-44
2021/08/17 07:15:41;;;;;;;8.27;3.95;;;;;;;15.69;91.12;100270.25;2614629;36;20057;-48
2021/08/17 07:18:10;;;;;;;12.35;4.28;;;;;;;15.72;90.54;100265.09;2615354;31;20169;-46
2021/08/17 07:20:37;;;;;;;12.13;3.92;;;;;;;15.72;90.90;100268.53;2614257;36;20412;-46
2021/08/17 07:23:04;;;;;;;7.97;3.40;;;;;;;15.61;90.51;100271.97;2614892;31;20060;-49
2021/08/17 07:25:32;;;;;;;9.45;3.17;;;;;;;15.62;91.25;100274.56;2614325;31;20030;-47
2021/08/17 07:27:59;;;;;;;8.95;3.50;;;;;;;15.45;92.06;100277.16;2615417;31;20030;-50
2021/08/17 07:30:26;;;;;;;12.70;3.88;;;;;;;15.29;91.61;100273.69;2615116;31;20582;-47
2021/08/17 07:32:53;;;;;;;8.88;4.18;;;;;;;15.50;91.49;100259.94;2614470;36;20030;-49
2021/08/17 07:35:21;;;;;;;7.28;3.45;;;;;;;15.57;90.43;100271.09;2614745;31;20606;-50
2021/08/17 07:37:49;;;;;;;11.88;3.78;;;;;;;15.56;90.04;100278.84;2614504;31;20077;-46
2021/08/17 07:40:17;;;;;;;9.35;3.60;;;;;;;15.91;88.74;100279.69;2614936;31;20045;-48
2021/08/17 07:42:45;;;;;;;11.75;3.40;;;;;;;16.09;87.43;100286.53;2614607;31;20061;-49
2021/08/17 07:45:15;;;;;;;12.48;3.85;;;;;;;16.21;86.87;100280.44;2631656;36;20026;-45
2021/08/17 07:47:43;;;;;;;6.28;3.50;;;;;;;16.39;86.41;100285.53;2615172;31;20124;-48
2021/08/17 07:50:11;;;;;;;10.30;3.67;;;;;;;16.30;85.45;100281.25;2613765;36;20061;-46
2021/08/17 07:52:39;;;;;;;9.43;3.40;;;;;;;16.23;86.04;100287.31;2615753;31;20449;-47
2021/08/17 07:55:09;;;;;;;8.68;3.17;;;;;;;16.16;86.62;100298.53;2614122;36;20504;-46
2021/08/17 07:57:37;;;;;;;10.98;3.60;;;;;;;16.01;87.04;100303.75;2614139;31;20022;-49
2021/08/17 08:00:06;;;;;;;10.40;2.53;;;;;;;16.25;86.02;100293.34;2614573;31;20142;-45
2021/08/17 08:02:33;;;;;;;8.93;3.22;;;;;;;16.15;86.59;100317.50;2614496;31;20031;-44
2021/08/17 08:05:01;;;;;;;7.93;3.40;;;;;;;16.01;87.62;100296.00;2613771;36;20041;-48
2021/08/17 08:07:28;;;;;;;6.50;2.90;;;;;;;15.99;86.93;100311.53;2614813;31;20027;-48
2021/08/17 08:09:55;;;;;;;7.75;2.90;;;;;;;16.21;86.93;100312.28;2613450;36;20570;-47
2021/08/17 08:12:23;;;;;;;9.05;3.45;;;;;;;16.26;87.09;100318.28;2614908;31;20038;-45
2021/08/17 08:14:50;;;;;;;8.80;3.13;;;;;;;16.22;86.25;100307.97;2613900;36;20138;-46
2021/08/17 08:17:17;;;;;;;8.30;2.90;;;;;;;16.26;86.55;100310.53;2613498;36;20034;-49
2021/08/17 08:19:44;;;;;;;6.93;3.15;;;;;;;16.26;84.70;100320.88;2613759;36;20038;-44
2021/08/17 08:22:11;;;;;;;7.13;3.10;;;;;;;15.92;86.20;100322.72;2614163;31;20037;-47
2021/08/17 08:24:38;;;;;;;5.03;2.83;;;;;;;16.04;86.46;100319.25;2613692;31;20030;-44
2021/08/17 08:27:06;;;;;;;9.15;2.95;;;;;;;16.02;87.32;100326.13;2613978;31;20053;-46
2021/08/17 08:29:33;;;;;;;7.57;2.53;;;;;;;15.91;88.06;100339.06;2615131;31;20061;-46
2021/08/17 08:32:01;;;;;;;8.02;3.30;;;;;;;15.92;88.11;100327.03;2615384;31;20035;-50
2021/08/17 08:34:28;;;;;;;5.95;2.85;;;;;;;15.87;87.92;100331.34;2616318;31;20034;-45
2021/08/17 08:36:55;;;;;;;6.63;2.92;;;;;;;15.93;89.16;100339.91;2615003;36;20041;-46
2021/08/17 08:39:24;;;;;;;6.82;2.97;;;;;;;15.84;87.63;100349.41;2614680;36;20038;-48
2021/08/17 08:41:55;;;;;;;5.70;2.72;;;;;;;15.79;89.10;100346.84;2614848;36;20030;-45
2021/08/17 08:44:22;;;;;;;8.13;3.03;;;;;;;15.74;88.94;100351.13;2615539;31;20571;-45
2021/08/17 08:46:50;;;;;;;8.40;3.13;;;;;;;15.74;88.73;100348.56;2614479;36;20058;-46
2021/08/17 08:49:19;;;;;;;6.50;2.47;;;;;;;15.72;88.80;100353.75;2615124;31;20027;-46
2021/08/17 08:51:46;;;;;;;6.75;3.28;;;;;;;15.67;88.97;100357.19;2615246;31;20031;-46
2021/08/17 08:54:13;;;;;;;7.38;2.80;;;;;;;15.52;89.75;100364.00;2632503;31;20034;-47
2021/08/17 08:56:41;;;;;;;9.35;3.47;;;;;;;15.55;88.79;100355.41;2615355;36;20562;-48
2021/08/17 08:59:08;;;;;;;8.43;2.95;;;;;;;15.58;90.52;100364.91;2615983;31;20061;-46
2021/08/17 09:01:35;;;;;;;5.45;2.78;;;;;;;15.55;90.41;100358.00;2614796;36;20053;-48
2021/08/17 09:04:03;;;;;;;8.40;2.72;;;;;;;15.80;88.32;100364.03;2614815;36;20142;-46
2021/08/17 09:06:33;;;;;;;8.63;2.80;;;;;;;15.72;88.82;100358.03;2615520;31;20042;-45
2021/08/17 09:09:17;;;;;;;7.82;2.53;;;;;;;15.67;88.98;100359.78;2615340;31;20030;-45
2021/08/17 09:11:47;;;;;;;7.68;2.78;;;;;;;15.54;89.55;100352.00;2615284;31;20065;-45
2021/08/17 09:14:16;;;;;;;9.70;3.03;;;;;;;15.62;89.94;100364.00;2626719;31;20566;-45
2021/08/17 09:16:43;;;;;;;7.07;2.92;;;;;;;15.67;89.11;100362.34;2615560;31;20027;-46
2021/08/17 09:19:29;;;;;;;8.77;2.72;;;;;;;15.63;88.52;100350.28;2616244;31;20038;-45
2021/08/17 09:22:03;;;;;;;8.23;2.67;;;;;;;15.68;89.20;100356.31;2579007;36;2004585;-49
2021/08/17 09:24:35;;;;;;;9.63;2.75;;;;;;;15.53;88.43;100364.91;2615502;31;20256;-44
2021/08/17 09:27:10;;;;;;;6.30;2.38;;;;;;;15.30;88.63;100367.47;2615107;31;20030;-47
2021/08/17 09:29:39;;;;;;;5.73;2.90;;;;;;;15.39;89.47;100372.63;2614699;36;20042;-48
2021/08/17 09:32:17;;;;;;;10.45;3.00;;;;;;;15.50;89.02;100380.38;2615015;31;20263;-48
2021/08/17 09:34:47;;;;;;;7.95;2.85;;;;;;;15.49;87.88;100363.19;2614828;31;20034;-47
2021/08/17 09:37:15;;;;;;;5.75;2.58;;;;;;;15.54;88.48;100372.63;2628903;36;20037;-49
2021/08/17 09:39:50;;;;;;;10.20;3.40;;;;;;;15.70;88.22;100375.25;2614629;36;20030;-47
2021/08/17 09:42:32;;;;;;;5.20;2.77;;;;;;;15.84;86.56;100378.66;2615870;31;20454;-43
2021/08/17 09:45:15;;;;;;;6.93;2.50;;;;;;;15.81;86.64;100376.09;2580683;31;2004373;-43
2021/08/17 09:47:56;;;;;;;10.88;3.20;;;;;;;15.88;85.47;100382.97;2614828;36;20893;-46
2021/08/17 09:50:33;;;;;;;8.02;3.00;;;;;;;16.19;84.91;100386.38;2579375;31;2004279;-44
2021/08/17 09:53:10;;;;;;;5.90;2.85;;;;;;;16.38;83.69;100381.16;2616842;31;20467;-45
2021/08/17 09:55:46;;;;;;;9.25;3.22;;;;;;;16.19;83.71;100391.53;2615172;31;20575;-48
2021/08/17 09:58:23;;;;;;;8.55;3.20;;;;;;;16.44;84.66;100381.97;2614606;36;20065;-46
2021/08/17 10:00:54;;;;;;;8.50;2.88;;;;;;;16.69;83.50;100377.59;2578585;36;2004637;-47
2021/08/17 10:03:22;;;;;;;8.65;3.42;;;;;;;17.17;80.16;100378.22;2615551;31;20579;-44
2021/08/17 10:05:50;;;;;;;7.95;2.80;;;;;;;17.43;77.63;100366.84;2615877;31;20510;-43
2021/08/17 10:08:18;;;;;;;8.60;3.33;;;;;;;17.56;77.89;100365.84;2614803;36;20034;-44
2021/08/17 10:10:47;;;;;;;11.15;3.38;;;;;;;17.89;75.07;100367.34;2616396;31;20065;-46
2021/08/17 10:13:20;;;;;;;8.70;3.17;;;;;;;17.76;75.83;100373.50;2632559;36;20034;-44
2021/08/17 10:15:49;;;;;;;12.02;3.28;;;;;;;17.95;73.07;100358.66;2614855;31;20035;-49
2021/08/17 10:18:31;;;;;;;8.52;2.72;;;;;;;17.50;74.45;100365.91;2620932;36;20027;-46
2021/08/17 10:21:02;;;;;;;8.23;2.92;;;;;;;17.67;75.81;100371.81;2578723;36;2004652;-46
2021/08/17 10:23:31;;;;;;;11.43;3.15;;;;;;;17.22;75.77;100373.88;2614539;36;20058;-47
2021/08/17 10:26:00;;;;;;;11.10;2.70;;;;;;;17.08;77.01;100374.84;2614939;36;20133;-43
2021/08/17 10:28:35;;;;;;;6.22;2.47;;;;;;;16.97;77.11;100372.31;2614890;31;20077;-45
2021/08/17 10:31:11;;;;;;;6.97;2.53;;;;;;;16.85;77.15;100388.75;2614985;36;20587;-46
2021/08/17 10:33:41;;;;;;;11.52;3.35;;;;;;;16.87;76.57;100375.81;2633281;31;20030;-43
2021/08/17 10:36:11;;;;;;;9.32;3.25;;;;;;;16.85;75.98;100369.78;2615150;36;20415;-44
2021/08/17 10:38:43;;;;;;;5.13;2.55;;;;;;;17.02;75.77;100386.09;2615254;31;20054;-47
2021/08/17 10:41:11;;;;;;;10.52;2.60;;;;;;;17.05;76.66;100380.88;2633458;31;20012;-44
2021/08/17 10:43:38;;;;;;;12.23;2.40;;;;;;;17.10;74.36;100381.72;2614791;31;20030;-44
2021/08/17 10:46:09;;;;;;;8.43;2.95;;;;;;;17.12;75.28;100379.97;2614309;36;20026;-47
2021/08/17 10:48:46;;;;;;;10.60;2.45;;;;;;;17.29;74.07;100385.06;2614368;31;20034;-43
2021/08/17 10:51:19;;;;;;;7.70;2.63;;;;;;;17.55;73.75;100377.94;2614474;36;20057;-59
2021/08/17 10:53:50;;;;;;;7.97;2.42;;;;;;;17.37;73.44;100380.66;2615175;36;20564;-56
2021/08/17 10:56:23;;;;;;;7.03;2.75;;;;;;;17.54;73.04;100385.72;2615070;36;20026;-57
2021/08/17 10:58:53;;;;;;;8.10;2.47;;;;;;;17.60;72.61;100385.66;2579106;36;2004077;-54
2021/08/17 11:01:46;;;;;;;9.80;2.70;;;;;;;17.66;72.54;100377.88;2615523;31;20696;-56
2021/08/17 11:04:15;;;;;;;7.05;2.60;;;;;;;17.64;71.67;100378.75;2615488;31;20566;-56
2021/08/17 11:06:48;;;;;;;6.72;1.95;;;;;;;17.51;71.84;100384.00;2615335;31;20038;-55
2021/08/17 11:09:16;;;;;;;5.95;2.28;;;;;;;17.39;71.75;100381.53;2615195;31;20284;-54
2021/08/17 11:11:46;;;;;;;7.95;2.05;;;;;;;17.23;72.71;100388.53;2614987;36;20026;-57
2021/08/17 11:14:16;;;;;;;7.22;2.15;;;;;;;17.24;72.61;100387.69;2615723;31;20578;-57
2021/08/17 11:17:11;;;;;;;8.20;2.47;;;;;;;17.33;72.10;100406.59;2615660;36;20460;-54
2021/08/17 11:19:41;;;;;;;11.00;2.40;;;;;;;17.48;71.16;100404.75;2578715;36;2004594;-58
2021/08/17 11:22:10;;;;;;;5.15;2.10;;;;;;;17.49;71.55;100418.56;2615302;36;20482;-55
2021/08/17 11:24:42;;;;;;;5.55;1.50;;;;;;;17.69;70.71;100401.13;2614910;36;20038;-55
2021/08/17 11:27:12;;;;;;;8.07;1.88;;;;;;;17.74;70.57;100412.34;2614953;36;20057;-56
2021/08/17 11:29:42;;;;;;;6.10;2.10;;;;;;;17.83;69.38;100414.00;2614897;36;20026;-55